Time;durP1;ratioP1;P1;durP2;ratioP2;P2;SDS_P1;SDS_P2;PMS_P1;PMS_P2;Temp;Humidity;BMP_temperature;BMP_pressure;BME280_temperature;BME280_humidity;BME280_pressure;Samples;Min_cycle;Max_cycle;Signal;HPM_P1;HPM_P2
2022/12/19 05:01:02;;;;;;;74.97;35.38;;;;;;;2.72;100.00;102832.06;5598217;31;367634;-55
2022/12/19 05:04:05;;;;;;;80.32;36.67;;;;;;;2.72;100.00;102832.06;5583420;31;33846;-53
2022/12/19 05:07:07;;;;;;;77.03;37.45;;;;;;;1.97;87.79;102833.03;5595806;31;33741;-54
2022/12/19 05:10:09;;;;;;;76.72;36.13;;;;;;;1.83;82.10;102831.03;5603809;31;33507;-54
2022/12/19 05:13:11;;;;;;;77.62;37.60;;;;;;;1.77;81.63;102834.31;5603248;31;33532;-54
2022/12/19 05:16:14;;;;;;;75.62;36.85;;;;;;;1.78;80.26;102839.41;5603761;31;33843;-56
2022/12/19 05:19:17;;;;;;;76.97;35.80;;;;;;;1.74;80.35;102848.69;5603099;31;33392;-54
2022/12/19 05:22:19;;;;;;;78.20;37.15;;;;;;;1.77;88.43;102843.06;5589542;31;32187;-54
2022/12/19 05:25:21;;;;;;;81.70;39.33;;;;;;;1.96;97.31;102843.78;5603436;31;33117;-54
2022/12/19 05:28:25;;;;;;;80.12;36.92;;;;;;;2.10;88.87;102838.66;5603192;31;33755;-55
2022/12/19 05:31:27;;;;;;;75.87;36.55;;;;;;;2.05;93.51;102841.00;5603104;31;33765;-55
2022/12/19 05:34:31;;;;;;;76.68;37.17;;;;;;;1.79;81.06;102838.47;5583349;32;33572;-54
2022/12/19 05:37:33;;;;;;;80.70;36.85;;;;;;;1.81;81.28;102836.47;5583331;32;33563;-55
2022/12/19 05:40:36;;;;;;;76.87;37.60;;;;;;;1.89;85.25;102819.81;5592152;31;33681;-54
2022/12/19 05:43:38;;;;;;;79.30;38.50;;;;;;;1.82;80.45;102824.06;5609290;31;34259;-54
2022/12/19 05:46:40;;;;;;;82.47;38.75;;;;;;;1.81;80.59;102827.69;5606930;31;33720;-54
2022/12/19 05:49:43;;;;;;;75.90;37.50;;;;;;;1.80;85.07;102839.28;5620471;31;34334;-54
2022/12/19 05:52:45;;;;;;;78.70;37.50;;;;;;;1.83;81.93;102838.97;5621548;31;33744;-54
2022/12/19 05:55:47;;;;;;;86.75;39.63;;;;;;;1.69;89.75;102834.28;5603487;31;34253;-55
2022/12/19 05:58:50;;;;;;;86.78;41.40;;;;;;;1.76;86.84;102830.84;5612626;31;34309;-54
2022/12/19 06:01:53;;;;;;;81.43;39.45;;;;;;;1.99;95.73;102832.88;5617586;31;34309;-54
2022/12/19 06:04:55;;;;;;;89.40;39.25;;;;;;;2.52;100.00;102831.59;5610415;31;34298;-54
2022/12/19 06:07:57;;;;;;;72.37;36.90;;;;;;;2.50;88.73;102825.63;5610791;31;32027;-54
2022/12/19 06:11:02;;;;;;;86.80;39.28;;;;;;;2.63;90.38;102825.94;5595590;31;33675;-54
2022/12/19 06:14:06;;;;;;;86.15;41.20;;;;;;;2.35;81.71;102836.87;5589735;31;33790;-54
2022/12/19 06:17:08;;;;;;;80.32;39.63;;;;;;;2.36;84.02;102840.34;5608644;31;35593;-54
2022/12/19 06:20:11;;;;;;;81.68;40.42;;;;;;;2.54;94.48;102841.00;5609826;31;34371;-54
2022/12/19 06:23:13;;;;;;;81.87;40.17;;;;;;;2.40;98.44;102843.50;5606102;31;34300;-54
2022/12/19 06:26:17;;;;;;;81.93;39.63;;;;;;;2.37;89.45;102846.47;5582644;31;33618;-54
2022/12/19 06:29:21;;;;;;;88.50;39.67;;;;;;;2.57;94.94;102853.09;5571100;31;34758;-54
2022/12/19 06:32:24;;;;;;;80.65;39.95;;;;;;;2.68;85.64;102843.97;5585478;31;33709;-54
2022/12/19 06:35:26;;;;;;;76.70;40.03;;;;;;;2.65;85.15;102850.44;5603497;31;34013;-54
2022/12/19 06:38:29;;;;;;;82.60;39.75;;;;;;;2.66;85.95;102852.09;5608885;31;33836;-54
2022/12/19 06:44:54;;;;;;;77.10;39.08;;;;;;;2.86;91.59;102852.56;5569393;32;33846;-54
2022/12/19 06:47:57;;;;;;;86.82;37.95;;;;;;;2.91;82.07;102858.16;5575037;31;33586;-54
2022/12/19 06:51:00;;;;;;;76.07;37.30;;;;;;;2.88;88.76;102853.22;5589314;31;34205;-55
2022/12/19 06:54:03;;;;;;;78.70;37.95;;;;;;;3.10;90.96;102858.81;5580783;31;34389;-54
2022/12/19 06:57:06;;;;;;;69.93;37.10;;;;;;;3.33;96.52;102854.41;5576537;31;34313;-55
2022/12/19 07:00:09;;;;;;;74.90;36.83;;;;;;;3.52;90.89;102846.06;5580895;31;34228;-54
2022/12/19 07:03:18;;;;;;;75.20;37.38;;;;;;;3.38;99.04;102851.25;5588738;31;33726;-54
2022/12/19 07:06:21;;;;;;;81.45;37.08;;;;;;;3.31;85.01;102851.09;5588877;31;33571;-55
2022/12/19 07:09:26;;;;;;;76.85;37.28;;;;;;;2.88;80.77;102857.69;5589324;31;33604;-54
2022/12/19 07:12:28;;;;;;;76.18;36.28;;;;;;;3.47;95.86;102864.31;5588659;31;33682;-54
2022/12/19 07:15:32;;;;;;;74.50;36.72;;;;;;;3.22;88.58;102873.34;5597970;31;34242;-54
2022/12/19 07:18:38;;;;;;;70.90;34.70;;;;;;;3.30;86.45;102874.16;5608481;31;34414;-54
2022/12/19 07:21:41;;;;;;;73.12;34.55;;;;;;;3.45;91.10;102866.31;5607283;31;33644;-54
2022/12/19 07:24:43;;;;;;;69.50;36.13;;;;;;;3.56;92.23;102877.53;5604222;31;33236;-54
2022/12/19 07:27:46;;;;;;;67.10;34.13;;;;;;;3.43;82.04;102867.47;5586427;31;34182;-54
2022/12/19 07:30:49;;;;;;;68.03;33.78;;;;;;;3.47;94.86;102859.00;5583490;31;33682;-54
2022/12/19 07:33:51;;;;;;;68.43;34.85;;;;;;;3.54;89.74;102859.12;5588104;31;33682;-54
2022/12/19 07:36:53;;;;;;;67.87;35.38;;;;;;;3.61;93.14;102869.88;5589170;31;33577;-54
2022/12/19 07:39:55;;;;;;;60.25;32.95;;;;;;;3.81;97.09;102867.63;5588197;31;33608;-55
2022/12/19 07:43:02;;;;;;;62.70;33.10;;;;;;;3.71;90.28;102868.69;5586257;31;33198;-54
2022/12/19 07:46:04;;;;;;;56.00;28.17;;;;;;;3.61;88.48;102868.09;5583012;31;33692;-54
2022/12/19 07:49:06;;;;;;;57.80;31.00;;;;;;;3.42;90.96;102856.06;5572979;31;33599;-54
2022/12/19 07:52:09;;;;;;;53.90;25.60;;;;;;;3.08;79.32;102856.34;5576465;31;34165;-54
2022/12/19 07:55:12;;;;;;;49.42;23.27;;;;;;;3.22;76.11;102863.56;5603561;31;34295;-54
2022/12/19 07:58:14;;;;;;;57.22;26.12;;;;;;;3.07;79.38;102859.97;5587930;31;33560;-54
2022/12/19 08:01:17;;;;;;;50.05;27.42;;;;;;;3.03;91.04;102864.78;5588213;31;33726;-54
2022/12/19 08:04:19;;;;;;;55.67;27.90;;;;;;;3.01;91.06;102885.34;5587120;31;34294;-55
2022/12/19 08:07:21;;;;;;;54.72;26.80;;;;;;;3.08;94.56;102874.03;5581747;31;33030;-54
2022/12/19 08:10:24;;;;;;;49.33;26.30;;;;;;;3.41;86.22;102874.78;5576307;31;34371;-55
2022/12/19 08:13:29;;;;;;;51.67;27.65;;;;;;;3.08;71.32;102874.88;5577699;31;33751;-54
2022/12/19 08:16:40;;;;;;;54.90;29.27;;;;;;;3.47;92.04;102890.00;5593043;31;33739;-54
2022/12/19 08:20:02;;;;;;;61.15;31.30;;;;;;;3.04;78.07;102894.75;5587782;31;34312;-55
2022/12/19 08:23:04;;;;;;;59.55;30.98;;;;;;;2.95;82.46;102893.97;5582924;31;33602;-54
2022/12/19 08:26:09;;;;;;;52.72;29.63;;;;;;;3.19;91.77;102897.56;5588298;31;33616;-54
2022/12/19 08:29:14;;;;;;;59.15;31.80;;;;;;;2.88;79.12;102898.28;5584916;31;33670;-54
2022/12/19 08:32:16;;;;;;;58.63;30.10;;;;;;;3.27;80.56;102890.38;5585347;31;34310;-54
2022/12/19 08:35:22;;;;;;;;;;;;;;;3.05;80.43;102886.66;5575026;31;33235;-54
2022/12/19 08:38:24;;;;;;;54.50;29.08;;;;;;;2.74;74.86;102883.84;5582239;31;34498;-54
2022/12/19 08:41:27;;;;;;;51.47;29.08;;;;;;;3.08;83.17;102874.88;5583080;31;33618;-54
2022/12/19 08:44:29;;;;;;;52.90;29.12;;;;;;;3.34;98.70;102882.59;5593342;31;33514;-54
2022/12/19 08:47:32;;;;;;;49.63;26.25;;;;;;;3.54;83.08;102869.75;5597126;31;33708;-54
2022/12/19 08:50:34;;;;;;;50.90;27.20;;;;;;;3.48;89.08;102875.75;5582624;31;34376;-54
2022/12/19 08:53:38;;;;;;;40.92;21.85;;;;;;;3.19;78.97;102874.53;5582448;31;33668;-54
2022/12/19 08:56:40;;;;;;;41.25;20.75;;;;;;;3.42;77.88;102874.63;5577053;31;33730;-54
2022/12/19 08:59:47;;;;;;;40.75;21.67;;;;;;;3.50;77.34;102873.75;5586786;31;33632;-54
2022/12/19 09:02:50;;;;;;;40.72;20.85;;;;;;;3.53;77.31;102865.44;5587745;31;34296;-54
2022/12/19 09:05:57;;;;;;;43.05;22.55;;;;;;;3.40;88.59;102865.16;5606754;31;33341;-53
2022/12/19 09:09:11;;;;;;;39.58;21.75;;;;;;;3.21;79.29;102875.19;5589521;31;34296;-54
2022/12/19 09:12:15;;;;;;;40.97;22.05;;;;;;;3.15;84.21;102867.09;5583460;31;33601;-54
2022/12/19 09:15:17;;;;;;;44.10;22.70;;;;;;;3.48;83.69;102862.50;5578345;31;34411;-53
2022/12/19 09:18:19;;;;;;;42.42;21.05;;;;;;;3.88;84.32;102861.47;5567694;32;33579;-54
2022/12/19 09:21:28;;;;;;;40.57;22.30;;;;;;;3.90;76.68;102863.94;5574958;31;33250;-54
2022/12/19 09:24:30;;;;;;;41.88;22.75;;;;;;;3.76;80.85;102870.81;5597070;31;33686;-54
2022/12/19 09:27:32;;;;;;;39.28;21.10;;;;;;;3.48;76.06;102870.47;5607475;31;33625;-54
2022/12/19 09:30:56;;;;;;;41.05;22.77;;;;;;;3.71;84.26;102883.78;5603508;31;33718;-54
2022/12/19 09:33:58;;;;;;;42.28;22.00;;;;;;;3.34;76.93;102885.22;5595663;31;33799;-54
2022/12/19 09:37:01;;;;;;;43.95;22.10;;;;;;;3.15;66.77;102875.88;5590435;31;33718;-54
2022/12/19 09:40:03;;;;;;;43.28;22.67;;;;;;;3.35;83.12;102872.84;5586276;31;33766;-54
2022/12/19 09:43:19;;;;;;;41.67;22.87;;;;;;;3.82;84.37;102856.87;5589350;31;34682;-54
2022/12/19 09:46:40;;;;;;;41.22;21.95;;;;;;;3.96;88.23;102847.31;5608253;31;33845;-54
2022/12/19 09:49:47;;;;;;;41.25;21.98;;;;;;;3.93;65.90;102845.03;5597313;31;33680;-54
2022/12/19 09:52:58;;;;;;;41.08;21.58;;;;;;;3.94;81.36;102842.19;5605833;31;34278;-55
2022/12/19 09:56:01;;;;;;;37.28;20.25;;;;;;;4.04;83.90;102838.47;5582123;31;34319;-54
2022/12/19 09:59:14;;;;;;;43.85;21.48;;;;;;;3.86;76.05;102836.94;5582479;31;33660;-54
2022/12/19 10:02:45;;;;;;;41.97;22.52;;;;;;;3.82;73.54;102835.63;5572683;31;32315;-55
2022/12/19 10:05:59;;;;;;;42.20;22.40;;;;;;;3.69;84.97;102830.06;5577311;31;33596;-54
2022/12/19 10:09:28;;;;;;;43.22;21.70;;;;;;;3.73;72.45;102818.94;5594705;31;33712;-54
2022/12/19 10:13:32;;;;;;;46.75;21.75;;;;;;;3.84;71.91;102817.72;5583846;31;34484;-54
2022/12/19 10:16:50;;;;;;;39.75;21.25;;;;;;;3.78;73.61;102804.34;5576335;31;33592;-54
2022/12/19 10:20:18;;;;;;;41.65;22.23;;;;;;;3.95;78.70;102814.66;5579766;31;34422;-54
2022/12/19 10:23:26;;;;;;;43.72;22.50;;;;;;;3.82;79.90;102819.72;5590853;31;33645;-55
2022/12/19 10:26:49;;;;;;;43.63;24.35;;;;;;;3.58;67.35;102819.87;5594919;31;33787;-54
2022/12/19 10:30:34;;;;;;;45.33;23.12;;;;;;;3.72;78.22;102811.97;5591379;31;33762;-55
2022/12/19 10:33:42;;;;;;;39.55;22.62;;;;;;;3.94;71.14;102820.97;5515170;32;33648;-54
2022/12/19 10:36:49;;;;;;;41.20;22.50;;;;;;;3.96;81.87;102808.34;5514704;32;33956;-54
2022/12/19 10:40:26;;;;;;;49.25;22.42;;;;;;;4.28;85.05;102803.78;5569448;31;33629;-55
2022/12/19 10:43:38;;;;;;;39.22;21.80;;;;;;;4.59;92.20;102794.88;5591557;31;33758;-54
2022/12/19 10:46:51;;;;;;;43.28;22.73;;;;;;;4.68;78.38;102784.00;5586630;31;34503;-54
2022/12/19 10:49:54;;;;;;;41.72;22.50;;;;;;;4.57;71.32;102786.25;5584709;31;34266;-54
2022/12/19 10:53:02;;;;;;;39.22;20.77;;;;;;;4.40;78.68;102786.44;5578035;31;33757;-55
2022/12/19 10:56:19;;;;;;;40.72;22.15;;;;;;;4.48;76.35;102778.38;5579670;31;33639;-54
2022/12/19 10:59:23;;;;;;;40.35;20.95;;;;;;;4.44;81.61;102774.44;5569219;31;35130;-54
2022/12/19 11:02:33;;;;;;;41.03;21.95;;;;;;;4.14;64.53;102770.03;5575990;31;34227;-54
2022/12/19 11:05:40;;;;;;;39.70;21.62;;;;;;;4.07;65.62;102775.25;5589676;31;34462;-54
2022/12/19 11:08:42;;;;;;;40.40;21.27;;;;;;;3.98;70.45;102777.16;5588455;31;33429;-54
2022/12/19 11:11:56;;;;;;;40.78;22.35;;;;;;;4.27;84.18;102772.09;5581354;31;33674;-54
2022/12/19 11:15:18;;;;;;;38.38;21.25;;;;;;;4.39;74.37;102760.88;5593564;31;34354;-54
2022/12/19 11:18:46;;;;;;;44.97;22.70;;;;;;;4.00;63.08;102767.16;5574905;31;33537;-55
2022/12/19 11:22:20;;;;;;;40.28;21.42;;;;;;;4.31;77.11;102765.44;5583120;31;33891;-55
2022/12/19 11:25:51;;;;;;;38.28;21.00;;;;;;;4.26;69.44;102760.66;5604980;31;33698;-55
2022/12/19 11:29:27;;;;;;;37.60;20.23;;;;;;;4.45;90.32;102760.16;5586856;31;34837;-55
2022/12/19 11:33:14;;;;;;;40.35;21.12;;;;;;;4.29;62.32;102756.81;5593763;31;34574;-55
2022/12/19 11:36:55;;;;;;;41.60;21.37;;;;;;;4.40;77.22;102756.38;5580745;31;34266;-55
2022/12/19 11:40:12;;;;;;;38.22;20.65;;;;;;;4.55;71.54;102756.41;5573408;31;33552;-55
2022/12/19 11:43:28;;;;;;;41.85;22.10;;;;;;;4.55;71.15;102746.59;5575169;31;33719;-55
2022/12/19 11:47:03;;;;;;;40.80;21.05;;;;;;;4.66;76.57;102734.69;5604922;31;34518;-55
2022/12/19 11:50:27;;;;;;;44.95;22.95;;;;;;;4.60;75.29;102725.66;5598532;31;33130;-55
2022/12/19 11:53:38;;;;;;;44.00;23.02;;;;;;;4.86;76.70;102714.53;5586676;31;33637;-55
2022/12/19 11:56:40;;;;;;;36.60;21.48;;;;;;;4.51;66.38;102712.62;5586407;31;33213;-55
2022/12/19 11:59:44;;;;;;;40.35;21.58;;;;;;;4.26;65.01;102712.84;5594801;31;34375;-55
2022/12/19 12:03:24;;;;;;;41.63;23.48;;;;;;;4.41;73.51;102707.59;5588419;31;33646;-55
2022/12/19 12:06:33;;;;;;;39.85;23.08;;;;;;;4.47;67.35;102704.19;5568463;32;33727;-55
2022/12/19 12:09:40;;;;;;;41.70;23.20;;;;;;;4.13;67.70;102713.47;5601188;31;33715;-55
2022/12/19 12:13:44;;;;;;;42.75;24.12;;;;;;;4.33;81.76;102707.66;5585332;31;33826;-55
2022/12/19 12:17:33;;;;;;;42.17;23.10;;;;;;;4.30;67.41;102708.00;5532411;31;33602;-54
2022/12/19 12:21:21;;;;;;;40.85;22.40;;;;;;;4.75;74.09;102700.91;5590046;31;33772;-54
2022/12/19 12:25:25;;;;;;;41.00;21.45;;;;;;;4.78;77.95;102705.84;5605310;31;33638;-55
2022/12/19 12:29:14;;;;;;;43.33;23.52;;;;;;;4.81;73.02;102693.00;5579405;31;34313;-54
2022/12/19 12:33:03;;;;;;;45.92;22.70;;;;;;;4.48;67.86;102692.56;5575172;31;33843;-55
2022/12/19 12:36:52;;;;;;;42.38;22.45;;;;;;;4.26;64.87;102690.78;5589987;31;34316;-55
2022/12/19 12:40:41;;;;;;;42.92;23.10;;;;;;;4.16;71.83;102691.88;5599148;31;33700;-54
2022/12/19 12:43:49;;;;;;;40.83;22.30;;;;;;;4.42;81.28;102685.31;5607141;31;33721;-55
2022/12/19 12:47:19;;;;;;;41.90;22.50;;;;;;;4.55;72.30;102682.03;5602922;31;34115;-55
2022/12/19 12:50:25;;;;;;;37.85;21.75;;;;;;;4.36;72.73;102683.38;5569146;31;33754;-54
2022/12/19 12:53:36;;;;;;;47.47;24.10;;;;;;;4.50;80.66;102690.53;5587870;31;33761;-54
2022/12/19 12:56:39;;;;;;;40.53;22.55;;;;;;;4.56;74.52;102681.00;5582963;31;33645;-55
2022/12/19 12:59:44;;;;;;;42.10;23.27;;;;;;;4.65;75.29;102680.72;5590907;31;33689;-55
2022/12/19 13:03:17;;;;;;;40.97;22.42;;;;;;;4.46;64.17;102668.81;5566916;32;34386;-54
2022/12/19 13:06:31;;;;;;;41.05;23.08;;;;;;;4.23;71.89;102663.59;5567351;31;34007;-54
2022/12/19 13:09:35;;;;;;;43.17;22.90;;;;;;;4.26;77.60;102661.59;5587175;31;33645;-54
2022/12/19 13:13:01;;;;;;;41.58;22.60;;;;;;;4.08;64.57;102665.44;5572397;31;33864;-55
2022/12/19 13:16:23;;;;;;;;;;;;;;;3.90;73.39;102668.38;5575500;31;33901;-54
2022/12/19 13:19:29;;;;;;;40.17;21.77;;;;;;;4.02;67.73;102665.31;5577075;31;34091;-55
2022/12/19 13:22:31;;;;;;;42.58;22.30;;;;;;;4.25;72.62;102660.78;5574613;31;34317;-54
2022/12/19 13:25:34;;;;;;;41.13;23.05;;;;;;;4.34;72.79;102664.16;5583082;31;33488;-54
2022/12/19 13:28:39;;;;;;;44.33;21.42;;;;;;;4.37;75.43;102655.81;5586632;31;33681;-54
2022/12/19 13:32:09;;;;;;;43.00;22.85;;;;;;;4.21;72.97;102660.31;5581917;31;33624;-54
2022/12/19 13:35:17;;;;;;;40.17;22.65;;;;;;;4.18;70.15;102649.25;5587612;31;33740;-54
2022/12/19 13:38:47;;;;;;;42.35;22.75;;;;;;;4.17;68.36;102651.06;5589926;31;34281;-54
2022/12/19 13:45:39;;;;;;;41.58;23.67;;;;;;;4.53;91.90;102639.69;5585211;31;33647;-54
2022/12/19 13:49:09;;;;;;;39.55;21.05;;;;;;;4.27;75.09;102631.38;5586511;31;34115;-54
2022/12/19 13:52:13;;;;;;;40.63;23.38;;;;;;;4.32;88.50;102636.97;5589944;31;33851;-54
2022/12/19 13:55:18;;;;;;;38.57;21.63;;;;;;;4.39;71.10;102637.88;5570381;32;33673;-54
2022/12/19 13:58:46;;;;;;;41.40;22.25;;;;;;;4.08;66.99;102636.22;5570735;31;34471;-54
2022/12/19 14:01:51;;;;;;;41.37;23.05;;;;;;;3.66;74.60;102648.22;5577627;31;33743;-54
2022/12/19 14:04:55;;;;;;;42.28;23.33;;;;;;;4.05;80.85;102647.19;5585718;31;33669;-56
2022/12/19 14:07:58;;;;;;;40.45;22.08;;;;;;;4.38;85.16;102641.56;5586649;31;34152;-54
2022/12/19 14:11:01;;;;;;;39.80;23.42;;;;;;;4.36;74.87;102636.41;5584972;31;33632;-54
2022/12/19 14:17:50;;;;;;;42.38;22.60;;;;;;;4.54;77.39;102643.19;5590111;31;33771;-54
2022/12/19 14:21:10;;;;;;;43.60;22.40;;;;;;;4.27;70.85;102640.16;5589877;31;33714;-54
2022/12/19 14:24:33;;;;;;;41.80;22.00;;;;;;;3.94;67.53;102637.00;5589813;31;33730;-54
2022/12/19 14:27:39;;;;;;;44.33;23.98;;;;;;;3.90;84.57;102636.53;5589770;31;33735;-54
2022/12/19 14:31:07;;;;;;;40.75;23.05;;;;;;;4.29;86.25;102630.19;5589449;31;33674;-54
2022/12/19 14:34:26;;;;;;;40.67;22.83;;;;;;;3.86;70.96;102627.31;5589662;31;34400;-54
2022/12/19 14:37:58;;;;;;;40.30;22.55;;;;;;;3.83;84.62;102626.84;5589621;31;34353;-55
2022/12/19 14:44:52;;;;;;;42.15;23.90;;;;;;;3.95;78.51;102633.37;5589244;31;34001;-54
2022/12/19 14:48:32;;;;;;;44.40;23.12;;;;;;;3.99;69.31;102629.34;5589211;31;33693;-54
2022/12/19 14:51:54;;;;;;;40.38;21.58;;;;;;;4.02;69.31;102642.25;5589463;31;33684;-53
2022/12/19 14:55:19;;;;;;;41.50;23.25;;;;;;;4.10;80.69;102638.69;5588985;31;33724;-54
2022/12/19 14:58:42;;;;;;;44.40;23.42;;;;;;;3.92;67.15;102642.50;5588517;31;33120;-54
2022/12/19 15:02:02;;;;;;;44.77;23.33;;;;;;;3.64;68.80;102631.66;5588994;31;34543;-54
2022/12/19 15:05:11;;;;;;;43.40;23.25;;;;;;;3.34;75.71;102633.37;5589144;31;34526;-53
2022/12/19 15:08:26;;;;;;;41.17;23.80;;;;;;;3.48;76.50;102640.56;5588785;31;33818;-54
2022/12/19 15:15:47;;;;;;;42.28;23.67;;;;;;;3.82;71.36;102639.28;5589202;31;33674;-54
2022/12/19 15:18:52;;;;;;;42.10;24.25;;;;;;;3.64;75.15;102649.38;5589411;31;33669;-54
2022/12/19 15:21:54;;;;;;;44.15;24.30;;;;;;;3.41;67.95;102649.38;5588356;31;34362;-54
2022/12/19 15:24:56;;;;;;;37.72;21.92;;;;;;;3.25;80.93;102653.00;5589394;31;33364;-54
2022/12/19 15:27:59;;;;;;;42.35;24.50;;;;;;;3.57;91.59;102643.16;5588867;31;33637;-54
2022/12/19 15:31:08;;;;;;;51.95;24.15;;;;;;;3.73;83.81;102643.00;5587592;31;33616;-54
2022/12/19 15:34:33;;;;;;;51.78;24.45;;;;;;;3.74;71.83;102644.66;5587431;31;33634;-54
2022/12/19 15:37:44;;;;;;;42.08;23.58;;;;;;;3.37;74.11;102650.75;5569688;32;33873;-54
2022/12/19 15:40:46;;;;;;;43.00;23.55;;;;;;;3.47;76.49;102661.94;5569395;32;34404;-54
2022/12/19 15:43:51;;;;;;;42.97;23.83;;;;;;;3.69;86.98;102655.81;5568537;32;34517;-54
2022/12/19 15:47:35;;;;;;;41.22;23.08;;;;;;;3.52;68.32;102649.00;5569237;32;34274;-54
2022/12/19 15:50:38;;;;;;;42.08;23.45;;;;;;;3.26;82.76;102655.47;5569398;32;34465;-54
2022/12/19 15:53:40;;;;;;;41.15;22.60;;;;;;;3.61;75.86;102647.94;5569542;32;33730;-54
2022/12/19 15:56:48;;;;;;;43.03;22.98;;;;;;;3.50;82.35;102653.63;5569476;32;33833;-54
2022/12/19 15:59:51;;;;;;;42.67;23.25;;;;;;;3.38;80.95;102649.75;5569404;32;34285;-54
2022/12/19 16:02:54;;;;;;;44.15;22.83;;;;;;;3.65;72.55;102646.56;5569135;32;33794;-54
2022/12/19 16:06:17;;;;;;;40.08;22.42;;;;;;;3.58;74.83;102647.47;5569250;32;33820;-55
2022/12/19 16:09:21;;;;;;;45.60;22.58;;;;;;;3.40;74.52;102642.44;5568818;32;33695;-54
2022/12/19 16:12:30;;;;;;;37.75;21.95;;;;;;;3.18;69.56;102642.28;5568414;32;34616;-55
2022/12/19 16:15:33;;;;;;;39.65;23.12;;;;;;;3.21;79.12;102636.63;5569445;32;34261;-54
2022/12/19 16:18:35;;;;;;;41.83;21.50;;;;;;;3.10;72.13;102639.66;5569227;32;34378;-54
2022/12/19 16:21:37;;;;;;;44.88;23.27;;;;;;;3.25;74.82;102635.25;5569351;32;34361;-54
2022/12/19 16:24:40;;;;;;;45.80;25.00;;;;;;;3.00;69.28;102631.09;5569088;32;33745;-54
2022/12/19 16:27:43;;;;;;;41.78;23.30;;;;;;;3.29;72.41;102628.59;5569283;32;34318;-54
2022/12/19 16:30:46;;;;;;;42.80;23.35;;;;;;;2.89;69.35;102636.81;5569130;32;33630;-54
2022/12/19 16:33:48;;;;;;;38.88;22.30;;;;;;;2.80;70.91;102636.84;5569126;32;33649;-54
2022/12/19 16:36:50;;;;;;;44.35;23.65;;;;;;;2.79;85.78;102634.38;5569049;32;34462;-54
2022/12/19 16:39:53;;;;;;;45.67;24.00;;;;;;;3.32;78.75;102621.31;5569193;32;34345;-54
2022/12/19 16:43:12;;;;;;;42.53;24.12;;;;;;;3.30;72.48;102617.00;5568933;32;33636;-55
